Time;durP1;ratioP1;P1;durP2;ratioP2;P2;SDS_P1;SDS_P2;PMS_P1;PMS_P2;Temp;Humidity;BMP_temperature;BMP_pressure;BME280_temperature;BME280_humidity;BME280_pressure;Samples;Min_cycle;Max_cycle;Signal;HPM_P1;HPM_P2
2022/05/07 00:00:52;;;;;;;9.87;4.10;;;15.10;99.90;;;;;;5070265;28;20535;-82
2022/05/07 00:03:20;;;;;;;3.83;3.07;;;15.10;99.90;;;;;;5066862;28;20496;-83
2022/05/07 00:05:48;;;;;;;4.33;3.60;;;15.10;99.90;;;;;;5069544;28;20473;-82
2022/05/07 00:08:18;;;;;;;7.63;3.37;;;15.00;99.90;;;;;;5083915;28;21909;-83
2022/05/07 00:10:46;;;;;;;4.23;3.40;;;15.00;99.90;;;;;;5067685;28;20840;-82
2022/05/07 00:13:14;;;;;;;4.43;3.57;;;15.10;99.90;;;;;;5065490;28;20557;-82
2022/05/07 00:18:01;;;;;;;3.00;2.80;;;15.00;99.90;;;;;;5066653;28;20455;-81
2022/05/07 00:18:30;;;;;;;3.97;3.67;;;14.90;99.90;;;;;;5067118;28;20832;-82
2022/05/07 00:20:58;;;;;;;4.60;3.40;;;14.80;99.90;;;;;;5065598;28;20462;-82
2022/05/07 00:23:28;;;;;;;5.30;3.60;;;14.80;99.90;;;;;;5065161;28;20848;-82
2022/05/07 00:25:56;;;;;;;2.90;2.60;;;14.90;99.90;;;;;;5067864;28;20483;-81
2022/05/07 00:28:24;;;;;;;6.40;3.93;;;14.90;99.90;;;;;;5065227;28;20461;-83
2022/05/07 00:30:52;;;;;;;4.27;3.87;;;14.80;99.90;;;;;;5068365;28;20469;-83
2022/05/07 00:33:21;;;;;;;3.77;3.30;;;14.80;99.90;;;;;;5067193;28;20477;-82
2022/05/07 00:35:49;;;;;;;5.40;4.90;;;14.80;99.90;;;;;;5068030;28;20544;-82
2022/05/07 00:38:17;;;;;;;4.53;3.97;;;14.80;99.90;;;;;;5066537;28;21077;-81
2022/05/07 00:40:46;;;;;;;3.50;3.20;;;14.80;99.90;;;;;;5063484;28;20457;-82
2022/05/07 00:43:17;;;;;;;3.63;3.33;;;14.70;99.90;;;;;;5060567;28;20482;-81
2022/05/07 00:45:46;;;;;;;3.70;3.23;;;14.70;99.90;;;;;;5053762;28;20473;-82
2022/05/07 00:48:15;;;;;;;5.93;3.73;;;14.90;99.90;;;;;;5059265;28;20461;-82
2022/05/07 00:53:30;;;;;;;5.40;3.90;;;14.60;99.90;;;;;;5065274;28;20539;-82
2022/05/07 00:56:00;;;;;;;4.30;3.80;;;14.60;99.90;;;;;;5063034;28;20456;-82
2022/05/07 00:58:29;;;;;;;3.50;3.20;;;14.60;99.90;;;;;;5064222;28;20451;-81
2022/05/07 01:00:57;;;;;;;3.87;3.20;;;14.60;99.90;;;;;;5063576;28;21033;-82
2022/05/07 01:03:25;;;;;;;3.97;3.50;;;14.60;99.90;;;;;;5064702;28;20471;-82
2022/05/07 01:05:54;;;;;;;3.77;3.47;;;14.60;99.90;;;;;;5062525;28;20477;-82
2022/05/07 01:08:25;;;;;;;4.13;2.83;;;14.50;99.90;;;;;;5063463;28;20453;-82
2022/05/07 01:10:53;;;;;;;4.27;3.60;;;14.50;99.90;;;;;;5061598;28;20466;-83
2022/05/07 01:13:23;;;;;;;3.83;3.53;;;14.50;99.90;;;;;;5058802;28;20508;-82
2022/05/07 01:15:55;;;;;;;3.37;3.10;;;14.50;99.90;;;;;;5066669;28;20498;-82
2022/05/07 01:18:24;;;;;;;3.30;3.10;;;14.50;99.90;;;;;;5063820;28;20576;-82
2022/05/07 01:20:54;;;;;;;3.83;3.33;;;14.50;99.90;;;;;;5065432;28;20456;-83
2022/05/07 01:23:24;;;;;;;4.30;3.90;;;14.40;99.90;;;;;;5058001;28;20994;-82
2022/05/07 01:25:52;;;;;;;4.40;4.00;;;14.40;99.90;;;;;;5062162;28;21006;-82
2022/05/07 01:28:20;;;;;;;3.70;2.90;;;14.40;99.90;;;;;;5061264;28;20477;-82
2022/05/07 01:30:48;;;;;;;4.47;3.87;;;14.30;99.90;;;;;;5097356;28;20979;-82
2022/05/07 01:33:17;;;;;;;4.07;3.23;;;14.30;99.90;;;;;;5063119;28;20497;-81
2022/05/07 01:35:45;;;;;;;6.17;5.60;;;14.30;99.90;;;;;;5062979;28;20444;-83
2022/05/07 01:38:13;;;;;;;5.03;3.30;;;14.30;99.90;;;;;;5063434;28;20463;-82
2022/05/07 01:40:43;;;;;;;5.07;3.60;;;14.30;99.90;;;;;;5065117;28;20459;-84
2022/05/07 01:43:11;;;;;;;3.60;3.30;;;14.30;99.90;;;;;;5066938;28;20499;-82
2022/05/07 01:45:39;;;;;;;4.60;3.63;;;14.30;99.90;;;;;;5061299;28;20488;-83
2022/05/07 01:48:09;;;;;;;3.80;3.30;;;14.20;99.90;;;;;;5061965;28;20834;-82
2022/05/07 01:50:39;;;;;;;3.97;3.43;;;14.20;99.90;;;;;;5060977;28;20452;-83
2022/05/07 01:53:08;;;;;;;4.23;3.87;;;14.20;99.90;;;;;;5066284;28;20486;-83
2022/05/07 01:55:37;;;;;;;3.50;3.20;;;14.10;99.90;;;;;;5054582;28;20442;-83
2022/05/07 01:58:07;;;;;;;5.77;3.93;;;14.10;99.90;;;;;;5062156;28;20453;-82
2022/05/07 02:00:35;;;;;;;4.27;3.87;;;14.00;99.90;;;;;;5062921;28;20454;-82
2022/05/07 02:03:04;;;;;;;4.77;3.43;;;14.10;99.90;;;;;;5064370;28;20472;-82
2022/05/07 02:05:32;;;;;;;4.10;3.80;;;14.00;99.90;;;;;;5074887;28;20483;-81
2022/05/07 02:08:01;;;;;;;3.90;3.50;;;14.00;99.90;;;;;;5060991;28;20801;-81
2022/05/07 02:10:30;;;;;;;4.53;4.13;;;14.00;99.90;;;;;;5065498;28;20455;-83
2022/05/07 02:13:01;;;;;;;5.20;3.70;;;14.00;99.90;;;;;;5064606;28;20484;-82
2022/05/07 02:15:31;;;;;;;4.00;3.40;;;14.00;99.90;;;;;;5063158;28;20851;-82
2022/05/07 02:17:59;;;;;;;4.03;3.73;;;13.90;99.90;;;;;;5058846;28;20512;-83
2022/05/07 02:20:27;;;;;;;4.77;3.60;;;13.90;99.90;;;;;;5061987;28;20486;-83
2022/05/07 02:22:57;;;;;;;7.90;3.63;;;14.00;99.90;;;;;;5062057;28;20470;-81
2022/05/07 02:25:26;;;;;;;4.73;3.43;;;13.90;99.90;;;;;;5059420;28;20476;-83
2022/05/07 02:27:54;;;;;;;3.93;2.93;;;13.90;99.90;;;;;;5064647;28;20506;-83
2022/05/07 02:30:22;;;;;;;5.53;3.67;;;13.90;99.90;;;;;;5064111;28;20452;-82
2022/05/07 02:32:52;;;;;;;5.00;4.17;;;13.80;99.90;;;;;;5063539;28;20849;-81
2022/05/07 02:35:21;;;;;;;4.30;3.80;;;13.80;99.90;;;;;;5059863;28;20483;-82
2022/05/07 02:37:50;;;;;;;3.67;3.27;;;13.80;99.90;;;;;;5060919;28;20447;-81
2022/05/07 02:40:18;;;;;;;4.03;3.70;;;13.80;99.90;;;;;;5063690;28;20455;-82
2022/05/07 02:42:45;;;;;;;6.03;3.67;;;13.80;99.90;;;;;;5064812;28;20468;-82
2022/05/07 02:45:14;;;;;;;4.43;3.40;;;13.70;99.90;;;;;;5065681;28;20456;-81
2022/05/07 02:47:44;;;;;;;2.97;2.77;;;13.70;99.90;;;;;;5061786;28;20466;-82
2022/05/07 02:50:13;;;;;;;3.47;3.10;;;13.70;99.90;;;;;;5062499;28;20458;-83
2022/05/07 02:52:42;;;;;;;5.07;4.23;;;13.70;99.90;;;;;;5069099;28;20483;-82
2022/05/07 02:55:10;;;;;;;3.40;3.10;;;13.70;99.90;;;;;;5066461;28;20454;-83
2022/05/07 02:57:39;;;;;;;4.13;3.73;;;13.70;99.90;;;;;;5063768;28;20462;-82
2022/05/07 03:00:08;;;;;;;6.77;3.97;;;13.70;99.90;;;;;;5063021;28;20490;-82
2022/05/07 03:02:36;;;;;;;4.10;3.23;;;13.60;99.90;;;;;;5061831;28;20487;-83
2022/05/07 03:05:05;;;;;;;3.57;3.13;;;13.60;99.90;;;;;;5065068;28;20447;-80
2022/05/07 03:07:35;;;;;;;2.43;2.23;;;13.60;99.90;;;;;;5053122;28;20482;-81
2022/05/07 03:10:03;;;;;;;3.17;2.93;;;13.60;99.90;;;;;;5059846;28;21205;-81
2022/05/07 03:12:32;;;;;;;4.47;3.63;;;13.60;99.90;;;;;;5060071;28;21029;-81
2022/05/07 03:15:00;;;;;;;2.67;2.47;;;13.60;99.90;;;;;;5062145;28;20448;-81
2022/05/07 03:17:28;;;;;;;3.20;3.00;;;13.50;99.90;;;;;;5062123;28;20439;-83
2022/05/07 03:19:56;;;;;;;3.60;3.13;;;13.60;99.90;;;;;;5068863;28;20450;-82
2022/05/07 03:22:25;;;;;;;3.53;3.20;;;13.50;99.90;;;;;;5064898;28;20581;-82
2022/05/07 03:24:55;;;;;;;3.27;2.90;;;13.50;99.90;;;;;;5063408;28;20470;-82
2022/05/07 03:27:23;;;;;;;3.47;2.53;;;13.50;99.90;;;;;;5063774;28;20486;-82
2022/05/07 03:29:51;;;;;;;2.90;2.70;;;13.50;99.90;;;;;;5072412;28;20457;-80
2022/05/07 03:32:19;;;;;;;2.73;2.33;;;13.40;99.90;;;;;;5058201;28;20479;-82
2022/05/07 03:34:47;;;;;;;3.97;2.80;;;13.40;99.90;;;;;;5063875;28;20450;-82
2022/05/07 03:37:16;;;;;;;3.03;2.83;;;13.30;99.90;;;;;;5064065;28;20455;-83
2022/05/07 03:39:44;;;;;;;3.50;3.20;;;13.40;99.90;;;;;;5066652;28;20450;-82
2022/05/07 03:42:14;;;;;;;3.30;3.00;;;13.40;99.90;;;;;;5066724;28;21014;-82
2022/05/07 03:44:42;;;;;;;3.97;3.27;;;13.30;99.90;;;;;;5063290;28;20985;-82
2022/05/07 03:47:10;;;;;;;3.20;2.90;;;13.30;99.90;;;;;;5060470;28;20532;-82
2022/05/07 03:49:38;;;;;;;3.70;2.90;;;13.30;99.90;;;;;;5061656;28;20610;-81
2022/05/07 03:54:53;;;;;;;5.80;3.67;;;13.30;99.90;;;;;;5063019;28;20866;-82
2022/05/07 03:57:22;;;;;;;2.90;2.70;;;13.30;99.90;;;;;;5062498;28;20447;-82
2022/05/07 03:59:50;;;;;;;3.30;2.77;;;13.20;99.90;;;;;;5059627;28;20510;-81
2022/05/07 04:02:19;;;;;;;3.80;3.13;;;13.20;99.90;;;;;;5058552;28;20479;-81
2022/05/07 04:04:51;;;;;;;3.13;2.83;;;13.20;99.90;;;;;;5058204;28;20504;-82
2022/05/07 04:07:19;;;;;;;6.00;3.50;;;13.10;99.90;;;;;;5061230;28;20495;-82
2022/05/07 04:09:51;;;;;;;3.40;3.20;;;13.10;99.90;;;;;;5058574;28;20462;-82
2022/05/07 04:12:19;;;;;;;3.53;3.30;;;13.10;99.90;;;;;;5062221;28;20498;-81
2022/05/07 04:14:49;;;;;;;4.50;4.10;;;13.20;99.90;;;;;;5061497;28;20482;-81
2022/05/07 04:17:17;;;;;;;2.87;2.63;;;13.10;99.90;;;;;;5066734;28;20819;-80
2022/05/07 04:19:45;;;;;;;2.93;2.60;;;13.10;99.90;;;;;;5062863;28;20453;-81
2022/05/07 04:22:13;;;;;;;5.00;3.43;;;13.00;99.90;;;;;;5055834;28;20479;-80
2022/05/07 04:24:43;;;;;;;3.33;3.03;;;13.00;99.90;;;;;;5062042;28;20456;-81
2022/05/07 04:27:11;;;;;;;4.17;3.77;;;13.00;99.90;;;;;;5063560;28;20478;-81
2022/05/07 04:29:39;;;;;;;4.50;3.17;;;13.10;99.90;;;;;;5060294;28;20451;-81
2022/05/07 04:32:10;;;;;;;3.33;3.03;;;13.20;99.90;;;;;;5065562;28;20488;-82
2022/05/07 04:34:38;;;;;;;4.40;3.43;;;13.00;99.90;;;;;;5061894;28;20448;-81
2022/05/07 04:37:07;;;;;;;3.57;3.27;;;13.00;99.90;;;;;;5059824;28;20462;-79
2022/05/07 04:39:35;;;;;;;4.10;3.70;;;13.00;99.90;;;;;;5060445;28;20463;-82
2022/05/07 04:42:04;;;;;;;5.53;4.07;;;13.00;99.90;;;;;;5065572;28;20490;-81
2022/05/07 04:44:33;;;;;;;4.07;3.67;;;13.00;99.90;;;;;;5061970;28;20465;-80
2022/05/07 04:47:01;;;;;;;4.63;4.23;;;13.00;99.90;;;;;;5061071;28;20471;-81
2022/05/07 04:49:31;;;;;;;4.00;3.63;;;13.10;99.90;;;;;;5058227;28;20715;-81
2022/05/07 04:52:00;;;;;;;3.37;2.80;;;13.10;99.90;;;;;;5059244;28;20474;-80
2022/05/07 04:54:28;;;;;;;4.33;3.40;;;13.10;99.90;;;;;;5058846;28;20467;-80
2022/05/07 04:56:56;;;;;;;3.87;3.30;;;13.10;99.90;;;;;;5055787;28;20475;-80
2022/05/07 04:59:25;;;;;;;4.50;4.00;;;13.20;99.90;;;;;;5058007;28;21134;-81
2022/05/07 05:01:53;;;;;;;3.67;3.37;;;13.10;99.90;;;;;;5056491;28;20554;-79
2022/05/07 05:04:22;;;;;;;6.93;3.17;;;13.20;99.90;;;;;;5062680;28;20533;-80
2022/05/07 05:06:51;;;;;;;4.33;3.20;;;13.20;99.90;;;;;;5060665;28;20462;-80
2022/05/07 05:09:19;;;;;;;5.30;3.80;;;13.20;99.90;;;;;;5060899;28;20536;-81
2022/05/07 05:11:48;;;;;;;3.63;3.00;;;13.20;99.90;;;;;;5058303;28;20443;-81
2022/05/07 05:17:02;;;;;;;3.07;2.87;;;13.30;99.90;;;;;;5061547;28;20440;-81
2022/05/07 05:19:30;;;;;;;3.10;2.80;;;13.30;99.90;;;;;;5061354;28;20489;-79
2022/05/07 05:21:59;;;;;;;4.20;3.80;;;13.30;99.90;;;;;;5056312;28;20472;-80
2022/05/07 05:24:28;;;;;;;5.10;3.60;;;13.30;99.90;;;;;;5058775;28;20439;-80
2022/05/07 05:26:56;;;;;;;4.77;4.03;;;13.40;99.90;;;;;;5058392;28;20471;-82
2022/05/07 05:29:24;;;;;;;6.27;4.47;;;13.40;99.90;;;;;;5055101;28;20454;-81
2022/05/07 05:31:52;;;;;;;4.83;4.43;;;13.40;99.90;;;;;;5057229;28;22469;-80
2022/05/07 05:34:20;;;;;;;5.30;4.87;;;13.40;99.90;;;;;;5056650;28;20977;-79
2022/05/07 05:36:48;;;;;;;4.87;4.23;;;13.40;99.90;;;;;;5052490;28;20458;-80
2022/05/07 05:39:18;;;;;;;5.10;4.60;;;13.50;99.90;;;;;;5052706;28;20465;-80
2022/05/07 05:41:46;;;;;;;5.37;4.80;;;13.60;99.90;;;;;;5062093;28;20457;-80
2022/05/07 05:44:14;;;;;;;4.83;4.20;;;13.60;99.90;;;;;;5057517;28;20449;-81
2022/05/07 05:46:42;;;;;;;4.87;4.03;;;13.60;99.90;;;;;;5060528;28;20458;-81
2022/05/07 05:49:11;;;;;;;9.70;4.67;;;13.70;99.90;;;;;;5058968;28;20466;-80
2022/05/07 05:51:39;;;;;;;9.30;4.13;;;13.80;99.90;;;;;;5059320;28;22049;-80
2022/05/07 05:54:07;;;;;;;4.83;4.40;;;13.80;99.90;;;;;;5056422;28;20544;-81
2022/05/07 05:56:37;;;;;;;4.40;4.00;;;13.90;99.90;;;;;;5057010;28;20456;-80
2022/05/07 05:59:05;;;;;;;5.80;4.10;;;13.90;99.90;;;;;;5058455;28;20965;-80
2022/05/07 06:01:33;;;;;;;5.47;4.97;;;14.00;99.90;;;;;;5056296;28;20512;-80
2022/05/07 06:04:01;;;;;;;4.10;3.50;;;14.00;99.90;;;;;;5061223;28;20537;-80
2022/05/07 06:06:30;;;;;;;4.60;4.20;;;14.10;99.90;;;;;;5055520;28;20463;-81
2022/05/07 06:08:58;;;;;;;4.23;3.93;;;14.20;99.90;;;;;;5057352;28;20488;-81
2022/05/07 06:11:26;;;;;;;3.80;3.50;;;14.20;99.90;;;;;;5057793;28;20960;-82
2022/05/07 06:13:56;;;;;;;4.27;3.50;;;14.30;99.90;;;;;;5058956;28;20902;-81
2022/05/07 06:16:24;;;;;;;4.80;4.30;;;14.40;99.90;;;;;;5057032;28;20456;-79
2022/05/07 06:18:52;;;;;;;5.23;4.83;;;14.50;99.90;;;;;;5054803;28;20458;-80
2022/05/07 06:21:20;;;;;;;4.40;3.97;;;14.60;99.90;;;;;;5060269;28;20472;-83
2022/05/07 06:23:49;;;;;;;4.50;4.10;;;14.60;99.90;;;;;;5063300;28;20507;-82
2022/05/07 06:29:05;;;;;;;3.93;3.57;;;14.70;99.90;;;;;;5057622;28;20493;-81
2022/05/07 06:31:34;;;;;;;4.10;3.13;;;14.80;99.90;;;;;;5061596;28;20452;-80
2022/05/07 06:34:09;;;;;;;4.13;3.53;;;14.90;99.90;;;;;;5068216;28;20553;-80
2022/05/07 06:36:38;;;;;;;4.90;3.67;;;15.00;99.90;;;;;;5060495;28;20455;-80
2022/05/07 06:39:06;;;;;;;3.60;3.30;;;15.20;99.90;;;;;;5061895;28;20449;-79
2022/05/07 06:41:40;;;;;;;4.03;3.50;;;15.40;99.90;;;;;;5058074;28;20466;-80
2022/05/07 06:44:09;;;;;;;7.07;4.03;;;15.70;99.90;;;;;;5055104;28;20630;-81
2022/05/07 06:46:37;;;;;;;3.90;3.00;;;15.90;99.90;;;;;;5061599;28;20454;-80
2022/05/07 06:49:06;;;;;;;8.17;3.03;;;16.10;99.90;;;;;;5059258;28;20562;-79
2022/05/07 06:51:35;;;;;;;4.87;4.20;;;16.20;99.90;;;;;;5058144;28;20545;-80
2022/05/07 06:54:03;;;;;;;4.00;3.53;;;16.40;99.90;;;;;;5057709;28;20457;-79
2022/05/07 06:56:31;;;;;;;4.83;3.90;;;16.60;99.90;;;;;;5054367;28;20455;-78
2022/05/07 06:58:59;;;;;;;3.60;3.30;;;16.70;99.90;;;;;;5061884;28;21590;-78
2022/05/07 07:01:29;;;;;;;3.90;3.60;;;16.80;99.90;;;;;;5055362;28;20802;-79
2022/05/07 07:03:58;;;;;;;3.27;3.03;;;16.90;99.90;;;;;;5058059;28;20513;-78
2022/05/07 07:06:26;;;;;;;5.23;3.50;;;17.00;99.90;;;;;;5059118;28;20458;-79
2022/05/07 07:08:56;;;;;;;4.03;2.53;;;17.10;99.90;;;;;;5059766;28;20563;-79
2022/05/07 07:11:25;;;;;;;6.87;3.87;;;17.20;99.90;;;;;;5056916;28;20505;-78
2022/05/07 07:13:53;;;;;;;6.27;4.13;;;17.30;99.90;;;;;;5059522;28;20486;-77
2022/05/07 07:16:22;;;;;;;6.40;2.77;;;17.40;99.90;;;;;;5062251;28;20465;-79
2022/05/07 07:18:52;;;;;;;5.53;3.13;;;17.50;99.90;;;;;;5063289;28;20461;-77
2022/05/07 07:21:20;;;;;;;5.43;3.50;;;17.50;99.90;;;;;;5063710;28;21240;-78
2022/05/07 07:23:49;;;;;;;3.67;3.37;;;17.70;99.90;;;;;;5060230;28;20991;-77
2022/05/07 07:26:19;;;;;;;2.60;2.30;;;17.80;99.90;;;;;;5065880;28;20970;-78
2022/05/07 07:28:47;;;;;;;5.13;4.33;;;17.80;99.90;;;;;;5063007;28;20484;-78
2022/05/07 07:31:17;;;;;;;3.53;3.23;;;17.90;99.90;;;;;;5065385;28;20544;-77
2022/05/07 07:33:45;;;;;;;5.37;3.50;;;18.00;99.90;;;;;;5062083;28;20477;-79
2022/05/07 07:36:15;;;;;;;3.30;2.77;;;18.00;99.90;;;;;;5064574;28;20455;-78
2022/05/07 07:38:43;;;;;;;3.50;3.20;;;18.10;99.90;;;;;;5060197;28;20487;-79
2022/05/07 07:41:11;;;;;;;3.60;3.10;;;18.10;99.90;;;;;;5061379;28;20468;-78
2022/05/07 07:43:40;;;;;;;5.30;3.00;;;18.10;99.90;;;;;;5059353;28;20477;-79
2022/05/07 07:48:54;;;;;;;3.40;3.10;;;18.20;99.90;;;;;;5058135;28;21329;-79
2022/05/07 07:51:24;;;;;;;5.70;4.13;;;18.30;99.90;;;;;;5065226;28;20454;-80
2022/05/07 07:53:52;;;;;;;5.50;5.00;;;18.30;99.90;;;;;;5064264;28;20479;-81
2022/05/07 07:56:20;;;;;;;5.03;4.53;;;18.30;99.90;;;;;;5067826;28;20981;-79
2022/05/07 07:58:48;;;;;;;5.40;4.90;;;18.30;99.90;;;;;;5059489;28;20447;-79
2022/05/07 08:01:16;;;;;;;5.33;4.40;;;18.40;99.90;;;;;;5061165;28;20459;-79
2022/05/07 08:03:45;;;;;;;4.87;4.47;;;18.40;99.90;;;;;;5061909;28;20476;-79
2022/05/07 08:06:13;;;;;;;5.13;4.07;;;18.50;99.90;;;;;;5064399;28;21177;-76
2022/05/07 08:11:46;;;;;;;5.22;4.72;;;18.50;99.90;;;;;;5063250;28;20442;-80
2022/05/07 08:14:15;;;;;;;6.67;4.07;;;18.60;99.90;;;;;;5059161;28;20207;-78
2022/05/07 08:16:44;;;;;;;7.35;5.60;;;18.60;99.90;;;;;;5089395;28;20488;-77
2022/05/07 08:19:13;;;;;;;7.37;4.80;;;18.70;99.90;;;;;;5056194;28;20459;-78
2022/05/07 08:21:41;;;;;;;4.80;4.40;;;18.80;99.90;;;;;;5063029;28;20442;-78
2022/05/07 08:24:11;;;;;;;5.40;4.80;;;18.90;99.90;;;;;;5063703;28;20482;-79
2022/05/07 08:26:39;;;;;;;4.63;4.23;;;18.90;99.90;;;;;;5061186;28;20536;-79
2022/05/07 08:29:08;;;;;;;6.13;5.17;;;18.90;99.90;;;;;;5063205;28;20552;-78
2022/05/07 08:31:36;;;;;;;6.55;5.20;;;19.00;99.90;;;;;;5062687;28;20458;-78
2022/05/07 08:34:04;;;;;;;8.67;5.93;;;19.00;99.90;;;;;;5059430;28;20205;-77
2022/05/07 08:36:32;;;;;;;6.87;5.10;;;19.10;99.90;;;;;;5062986;28;20973;-77
2022/05/07 08:39:00;;;;;;;5.10;3.90;;;19.00;99.90;;;;;;5057297;28;20451;-77
2022/05/07 08:41:30;;;;;;;5.50;4.60;;;19.20;99.90;;;;;;5059712;28;20978;-77
2022/05/07 08:43:58;;;;;;;5.90;4.20;;;19.20;99.90;;;;;;5059868;28;20463;-76
2022/05/07 08:46:27;;;;;;;4.00;3.70;;;19.20;99.90;;;;;;5057738;28;20481;-76
2022/05/07 08:48:56;;;;;;;4.23;3.37;;;19.30;99.90;;;;;;5061643;28;20475;-78
2022/05/07 08:51:24;;;;;;;4.07;3.70;;;19.40;99.90;;;;;;5068107;28;20447;-79
2022/05/07 08:53:54;;;;;;;5.20;4.10;;;19.40;99.90;;;;;;5062248;28;20559;-78
2022/05/07 08:56:24;;;;;;;4.23;3.83;;;19.50;99.90;;;;;;5070141;28;20492;-79
2022/05/07 08:58:55;;;;;;;3.23;2.93;;;19.50;99.90;;;;;;5068336;28;20795;-79
2022/05/07 09:01:24;;;;;;;3.07;2.87;;;19.50;99.90;;;;;;5070110;28;20450;-79
2022/05/07 09:03:53;;;;;;;4.30;2.30;;;19.60;99.90;;;;;;5063473;28;20482;-78
2022/05/07 09:06:24;;;;;;;3.03;2.20;;;19.60;99.90;;;;;;5060511;28;20473;-79
2022/05/07 09:08:53;;;;;;;2.43;2.23;;;19.60;99.90;;;;;;5062843;28;20493;-78
2022/05/07 09:11:22;;;;;;;1.90;1.80;;;19.70;99.90;;;;;;5064785;28;20451;-78
2022/05/07 09:14:04;;;;;;;1.90;1.80;;;19.70;99.90;;;;;;5065854;28;20504;-79
2022/05/07 09:16:43;;;;;;;2.20;1.73;;;19.70;99.90;;;;;;5065793;28;20462;-79
2022/05/07 09:19:23;;;;;;;1.70;1.60;;;19.80;99.90;;;;;;5064891;28;20454;-80
2022/05/07 09:21:54;;;;;;;7.50;1.90;;;19.70;99.90;;;;;;5061048;28;20450;-78
2022/05/07 09:24:22;;;;;;;1.53;1.43;;;19.80;99.90;;;;;;5066342;28;20457;-79
2022/05/07 09:26:51;;;;;;;1.40;1.30;;;19.90;99.90;;;;;;5066503;28;20464;-80
2022/05/07 09:29:20;;;;;;;1.73;1.57;;;19.90;99.90;;;;;;5064020;28;20489;-79
2022/05/07 09:31:49;;;;;;;2.20;1.50;;;20.00;99.90;;;;;;5066665;28;20494;-79
2022/05/07 09:37:15;;;;;;;1.77;1.67;;;20.10;99.90;;;;;;5069413;28;20446;-79
2022/05/07 09:39:47;;;;;;;2.03;1.40;;;20.20;99.90;;;;;;5063901;28;20529;-78
2022/05/07 09:42:17;;;;;;;2.07;1.80;;;20.20;99.90;;;;;;5069439;28;20543;-79
2022/05/07 09:44:47;;;;;;;4.33;1.87;;;20.30;99.90;;;;;;5062379;28;20455;-79
2022/05/07 09:47:17;;;;;;;1.80;1.47;;;20.40;99.90;;;;;;5067919;28;20516;-80
2022/05/07 09:52:31;;;;;;;2.03;1.13;;;20.50;99.90;;;;;;5064174;28;20492;-79
2022/05/07 09:57:46;;;;;;;1.37;1.27;;;20.50;99.90;;;;;;5069425;28;21030;-80
2022/05/07 10:00:20;;;;;;;2.70;1.30;;;20.50;99.90;;;;;;5064112;28;20470;-79
2022/05/07 10:03:06;;;;;;;2.73;1.90;;;20.60;99.90;;;;;;5062795;28;20467;-79
2022/05/07 10:05:58;;;;;;;1.33;1.23;;;20.60;99.90;;;;;;5063015;28;20462;-80
2022/05/07 10:08:42;;;;;;;2.47;1.60;;;20.60;99.90;;;;;;5065651;28;20457;-79
2022/05/07 10:11:15;;;;;;;1.50;1.10;;;20.50;99.90;;;;;;5065092;28;20485;-79
2022/05/07 10:13:54;;;;;;;1.57;1.40;;;20.50;99.90;;;;;;5064794;28;20473;-80
2022/05/07 10:16:29;;;;;;;1.53;1.30;;;20.60;99.90;;;;;;5065453;28;20462;-79
2022/05/07 10:19:10;;;;;;;1.43;1.20;;;20.70;99.90;;;;;;5059517;28;20450;-78
2022/05/07 10:21:39;;;;;;;1.70;1.60;;;20.70;99.90;;;;;;5061803;28;20852;-79
2022/05/07 10:24:09;;;;;;;2.73;1.20;;;20.80;99.90;;;;;;5067927;28;20474;-79
2022/05/07 10:26:40;;;;;;;1.30;1.20;;;20.80;99.90;;;;;;5065539;28;20458;-79
2022/05/07 10:29:20;;;;;;;2.63;1.40;;;21.00;99.90;;;;;;5069624;28;20473;-79
2022/05/07 10:31:51;;;;;;;1.50;1.40;;;21.00;99.90;;;;;;5069428;28;20452;-79
2022/05/07 10:34:26;;;;;;;1.43;1.13;;;21.00;99.90;;;;;;5060800;28;20524;-78
2022/05/07 10:37:02;;;;;;;1.20;1.10;;;21.00;99.90;;;;;;5061963;28;20461;-79
2022/05/07 10:39:31;;;;;;;1.70;1.20;;;21.10;99.90;;;;;;5059444;28;20524;-79
2022/05/07 10:42:01;;;;;;;1.27;1.17;;;21.10;99.90;;;;;;5066321;28;20476;-78
2022/05/07 10:44:31;;;;;;;4.57;0.97;;;21.10;99.90;;;;;;5061681;28;20447;-78
2022/05/07 10:47:11;;;;;;;2.50;1.10;;;21.20;99.90;;;;;;5063996;28;20452;-78
2022/05/07 10:49:56;;;;;;;1.50;1.20;;;21.20;99.90;;;;;;5062361;28;21038;-78
2022/05/07 10:52:33;;;;;;;1.67;1.00;;;21.20;99.90;;;;;;5065040;28;20481;-79
2022/05/07 10:55:08;;;;;;;1.73;1.30;;;21.20;99.90;;;;;;5063022;28;20477;-80
2022/05/07 10:57:44;;;;;;;1.20;1.10;;;21.20;99.90;;;;;;5056259;28;20457;-80
2022/05/07 11:00:16;;;;;;;1.50;1.20;;;21.30;99.90;;;;;;5071271;28;21014;-79
2022/05/07 11:02:48;;;;;;;1.80;1.20;;;21.30;99.90;;;;;;5059282;28;20885;-79
2022/05/07 11:05:17;;;;;;;3.75;1.33;;;21.30;99.90;;;;;;5056942;28;20451;-78
2022/05/07 11:07:45;;;;;;;1.10;1.00;;;21.50;99.90;;;;;;5061399;28;20193;-78
2022/05/07 11:10:14;;;;;;;1.17;1.07;;;21.50;99.90;;;;;;5061972;28;20472;-78
2022/05/07 11:12:42;;;;;;;1.67;1.10;;;21.50;99.90;;;;;;5061372;28;21027;-78
2022/05/07 11:15:12;;;;;;;1.30;1.20;;;21.40;99.90;;;;;;5061334;28;20454;-78
2022/05/07 11:17:41;;;;;;;1.17;1.07;;;21.40;99.90;;;;;;5065886;28;21343;-78
2022/05/07 11:20:13;;;;;;;1.00;1.00;;;21.30;99.90;;;;;;5067365;28;20453;-78
2022/05/07 11:22:42;;;;;;;1.50;1.40;;;21.10;99.90;;;;;;5066330;28;20513;-78
2022/05/07 11:25:11;;;;;;;1.43;1.33;;;21.10;99.90;;;;;;5067707;28;20909;-78
2022/05/07 11:27:39;;;;;;;1.30;1.20;;;21.20;99.90;;;;;;5066451;28;20465;-78
2022/05/07 11:30:10;;;;;;;1.63;1.30;;;21.20;99.90;;;;;;5066063;28;20478;-78
2022/05/07 11:32:41;;;;;;;2.23;1.53;;;21.30;99.90;;;;;;5062193;28;20535;-78
2022/05/07 11:35:10;;;;;;;2.23;1.43;;;21.20;99.90;;;;;;5064608;28;21067;-78
2022/05/07 11:37:41;;;;;;;1.57;1.47;;;21.20;99.90;;;;;;5068744;28;20608;-78
2022/05/07 11:40:10;;;;;;;2.63;1.60;;;21.10;99.90;;;;;;5066558;28;20489;-77
2022/05/07 11:42:43;;;;;;;1.90;1.70;;;21.10;99.90;;;;;;5063252;28;20533;-78
2022/05/07 11:45:29;;;;;;;2.13;1.40;;;21.10;99.90;;;;;;5064693;28;20472;-78
2022/05/07 11:48:02;;;;;;;1.60;1.50;;;21.10;99.90;;;;;;5065085;28;20592;-78
2022/05/07 11:50:32;;;;;;;1.60;1.43;;;21.10;99.90;;;;;;5067460;28;20859;-78
2022/05/07 11:53:12;;;;;;;1.40;1.30;;;21.10;99.90;;;;;;5064334;28;20485;-78
2022/05/07 11:55:41;;;;;;;2.43;1.30;;;21.10;99.90;;;;;;5065960;28;20458;-78
2022/05/07 11:58:14;;;;;;;1.70;1.60;;;21.10;99.90;;;;;;5065651;28;20461;-78
2022/05/07 12:00:43;;;;;;;1.50;1.40;;;21.10;99.90;;;;;;5064382;28;20447;-78
2022/05/07 12:03:16;;;;;;;1.70;1.60;;;21.10;99.90;;;;;;5066259;28;20505;-77
2022/05/07 12:05:47;;;;;;;1.70;1.60;;;21.10;99.90;;;;;;5067655;28;20549;-78
2022/05/07 12:08:18;;;;;;;1.90;1.70;;;21.10;99.90;;;;;;5071175;28;20458;-79
2022/05/07 12:10:47;;;;;;;2.47;2.10;;;21.10;99.90;;;;;;5065329;28;20470;-79
2022/05/07 12:13:16;;;;;;;2.40;1.93;;;21.10;99.90;;;;;;5067874;28;20474;-79
2022/05/07 12:18:36;;;;;;;1.70;1.60;;;21.20;99.90;;;;;;5050581;28;20476;-78
2022/05/07 12:21:04;;;;;;;1.87;1.63;;;21.30;99.90;;;;;;5059920;28;20454;-78
2022/05/07 12:31:52;;;;;;;1.60;1.43;;;21.60;99.90;;;;;;5060152;28;20233;-78
2022/05/07 12:34:22;;;;;;;2.37;1.30;;;21.70;99.90;;;;;;5064953;28;21115;-79
2022/05/07 12:36:50;;;;;;;1.30;1.20;;;21.70;99.90;;;;;;5054244;28;21104;-78
2022/05/07 12:39:20;;;;;;;2.80;1.40;;;21.70;99.90;;;;;;5067334;28;20548;-79
2022/05/07 12:41:48;;;;;;;2.60;1.50;;;21.80;99.90;;;;;;5066393;28;20460;-79
2022/05/07 12:44:17;;;;;;;1.87;1.30;;;21.80;99.90;;;;;;5053793;28;20543;-78
2022/05/07 12:46:45;;;;;;;1.77;1.27;;;21.90;99.90;;;;;;5059765;28;20460;-78
2022/05/07 12:49:14;;;;;;;1.80;1.20;;;22.00;99.90;;;;;;5068500;28;20455;-78
2022/05/07 12:51:42;;;;;;;1.67;1.40;;;22.00;99.90;;;;;;5065085;28;20482;-79
2022/05/07 12:54:10;;;;;;;2.90;1.40;;;22.00;99.90;;;;;;5066574;28;20464;-80
2022/05/07 12:56:39;;;;;;;1.50;1.40;;;22.00;99.90;;;;;;5064806;28;20457;-80
2022/05/07 12:59:08;;;;;;;1.47;1.30;;;21.90;99.90;;;;;;5057246;28;20457;-81
2022/05/07 13:01:38;;;;;;;1.60;1.33;;;22.00;99.90;;;;;;5062969;28;20942;-79
2022/05/07 13:04:06;;;;;;;1.80;1.23;;;21.90;99.90;;;;;;5067002;28;20565;-80
2022/05/07 13:06:34;;;;;;;1.43;1.20;;;21.90;99.90;;;;;;5063208;28;20453;-80
2022/05/07 13:09:03;;;;;;;1.43;1.30;;;21.90;99.90;;;;;;5057501;28;20455;-80
2022/05/07 13:11:32;;;;;;;1.33;1.23;;;21.90;99.90;;;;;;5055924;28;20577;-79
2022/05/07 13:14:02;;;;;;;1.50;1.40;;;21.90;99.90;;;;;;5060054;28;21055;-79
2022/05/07 13:16:30;;;;;;;2.50;1.20;;;21.90;99.90;;;;;;5068668;28;20450;-79
2022/05/07 13:18:58;;;;;;;1.50;1.40;;;22.00;99.90;;;;;;5061242;28;20466;-81
2022/05/07 13:21:26;;;;;;;1.60;1.50;;;22.20;99.90;;;;;;5065808;28;20450;-80
2022/05/07 13:23:55;;;;;;;1.20;1.10;;;22.10;99.90;;;;;;5066957;28;20553;-81
2022/05/07 13:26:23;;;;;;;1.97;1.27;;;22.10;99.90;;;;;;5065767;28;20456;-81
2022/05/07 13:29:12;;;;;;;1.30;1.20;;;22.10;99.90;;;;;;5069384;28;20460;-79
2022/05/07 13:31:41;;;;;;;1.27;1.17;;;22.20;99.90;;;;;;5064696;28;20531;-80
2022/05/07 13:34:09;;;;;;;3.53;1.27;;;22.20;99.90;;;;;;5067835;28;20549;-81
2022/05/07 13:36:37;;;;;;;1.60;1.50;;;22.30;99.90;;;;;;5063167;28;20507;-80